Tiempo atmosférico en la estación meteorológica de Ciudad Real, Ciudad Real (628 m.)



Fecha
DESCASC
Temp. máxima en grados centígrados (hora)
DESCASC
Temp. mínima en grados centígrados (hora)
DESCASC
Temp. media en grados centígrados
DESCASC
Racha de viento máxima en m/sg (hora)
DESCASC
Velocidad máxima media en intervalos de 10 minutos(hora)
DESCASC
Precipitaciones diarias en mm
DESCASC
Precipitaciones de 00:00 a 06:00 en mm
DESCASC
Precipitaciones de 06:00 a 12:00 en mm
DESCASC
Precipitaciones de 12:00 a 18:00 en mm
DESCASC
Precipitaciones de 18:00 a 24:00 en mm
DESCASC
22-11-2020 11 (16:40) 1 (09:40) 6 3.89 (03:30) -- (--) 0 0 0 0 0
21-11-2020 15.1 (15:00) 2.4 (08:10) 8.8 6.11 (10:50) 3.33 (10:50) 0 0 0 0 0
20-11-2020 18.1 (15:10) 5.9 (08:20) 12 7.22 (15:30) -- (--) 0 0 0 0 0
19-11-2020 20.1 (15:10) 6.6 (00:00) 13.4 5.83 (15:20) 3.61 (15:40) 0 0 0 0 0
18-11-2020 20 (15:40) 6.6 (00:00) 13.3 -- (--) -- (--) 0 0 0 0 0
17-11-2020 15.9 (16:20) 7.9 (00:00) 11.9 2.5 (10:20) -- (--) 0 0 0 0 0
16-11-2020 20 (14:40) 11 (00:00) 15.5 5 (16:00) 2.78 (16:40) 0 0 0 0 0
15-11-2020 20.1 (13:40) 10.3 (00:00) 15.2 5.28 (16:50) 2.5 (15:10) 0 0 0 0 0
14-11-2020 15.3 (15:40) 10.2 (00:00) 12.8 4.17 (20:40) 2.22 (22:40) 1.6 0 0.6 0.4 0.6
13-11-2020 16.2 (16:10) 4.4 (00:00) 10.3 2.78 (15:50) 1.39 (14:10) 0 0 0 0 0
12-11-2020 14.6 (16:30) 6.1 (00:00) 10.4 5.28 (12:20) 3.06 (12:40) 0 0 0 0 0
11-11-2020 15.7 (15:30) 4.4 (00:00) 10 3.61 (09:20) 2.22 (09:20) 0 0 0 0 0
10-11-2020 14.6 (16:30) 5.3 (00:00) 10 4.44 (16:20) 2.22 (16:10) 0 0 0 0 0
09-11-2020 15.4 (15:20) 8.7 (00:00) 12 5.83 (13:50) 3.33 (14:20) 2.8 0 2.8 0 0
08-11-2020 17.9 (14:00) 5.8 (00:00) 11.8 4.44 (13:50) 1.94 (13:50) 0 0 0 0 0
07-11-2020 16.9 (15:10) 8.8 (00:00) 12.8 11.11 (04:50) 5.28 (04:50) 9 7.6 1.4 0 0
06-11-2020 20.5 (14:10) 11.3 (00:00) 15.9 9.72 (16:00) 5.56 (16:00) 1.2 0 0 0 1.2
05-11-2020 15.2 (12:30) 11.1 (00:00) 13.2 12.5 (14:30) 6.39 (15:40) 20 15.4 3.8 0.8 0
04-11-2020 15.8 (15:00) 10.5 (00:00) 13.2 8.89 (19:30) 4.72 (19:20) 1.2 0 0 0 1.2
03-11-2020 21.5 (14:30) 10.8 (00:00) 16.2 7.78 (17:40) 3.89 (16:20) 12.2 0 0 11.4 0.8
02-11-2020 23.5 (14:30) 7.5 (00:00) 15.5 -- (--) -- (--) 0 0 0 0 0
01-11-2020 22.5 (15:50) 7.5 (00:00) 15 -- (--) -- (--) 0 0 0 0 0
31-10-2020 23.1 (15:00) 7.6 (00:00) 15.4 2.78 (16:00) 1.67 (19:40) 0 0 0 0 0
30-10-2020 22.1 (15:10) 6.4 (00:00) 14.3 4.72 (10:30) 2.78 (12:20) 0 0 0 0 0
29-10-2020 19.8 (14:40) 9.1 (00:00) 14.4 4.72 (13:10) 2.78 (11:10) 0 0 0 0 0
28-10-2020 18.4 (17:00) 5.7 (00:00) 12 4.72 (14:20) 2.5 (15:00) 0 0 0 0 0
27-10-2020 15.9 (14:20) 4.6 (00:00) 10.2 6.67 (14:40) 3.33 (14:30) 0 0 0 0 0

Gráficas

Temp. máximas Temp. mínimas Temp. medias Precipitaciones Rachas de viento máximas Velocidades máximas media en intervalos de 10 minutos

Datos horarios

Fecha y hora oficial Temperatura (ºC) Velocidad del viento (km/h) Dirección del viento Racha (km/h) Dirección de racha Precipitación (mm) Presión (hPa) Tendencia (hPa) Humedad (%)
2020-11-25 23:00:00 9.8 6 Este 11 Este 0.4 939.2 -0.3 95
2020-11-25 22:00:00 10.1 5 Sudeste 13 Sur 1.2 939.4 0.1 94
2020-11-25 21:00:00 10.4 7 Sur 17 Sur 1.4 939.5 0.3 92
2020-11-25 20:00:00 10.8 8 Sudeste 16 Sudeste 0.2 939.5 0 88
2020-11-25 19:00:00 11.3 9 Sudeste 19 Sudeste 0 939.3 0.2 82
2020-11-25 18:00:00 11.5 8 Sur 23 Sur 0 939.2 -0.4 81
2020-11-25 17:00:00 13.3 13 Sur 33 Sur 0.2 939.5 -1.2 78
2020-11-25 16:00:00 15 9 Sur 21 Sur 0 939.1 -2.7 60
2020-11-25 15:00:00 15.2 10 Sur 22 Sur 0 939.6 -3.2 57
2020-11-25 14:00:00 14.8 9 Sur 23 Sur 0 940.7 -2.6 56
2020-11-25 13:00:00 15.3 9 Sur -- -- -- 941.8 -1.7 55
2020-11-25 12:00:00 13 -- -- -- -- 0 942.8 -0.9 67
2020-11-25 11:00:00 10.9 -- -- -- -- 0 943.3 -0.5 80
2020-11-25 10:00:00 7.6 3 Este 5 Este 0 943.5 -- 88
2020-11-25 09:00:00 6 2 Este 5 Este 0 943.7 -- 89
2020-11-25 08:00:00 6.1 -- -- 5 Nordeste 0 943.8 -- 88
2020-11-25 07:00:00 6.1 0 Calma 5 Noroeste 0 943.9 -- 87
2020-11-25 06:00:00 6.5 -- -- 6 Nordeste 0 943.9 -- 86
2020-11-25 05:00:00 6.8 -- -- 5 Este 0 944.3 -- 86
2020-11-25 04:00:00 7 -- -- 5 Nordeste 0 944.7 -- 84
2020-11-25 03:00:00 7.7 -- -- 6 Noroeste 0 945 -- 84
2020-11-25 02:00:00 7.6 0 Calma 8 Sur 0 945.4 -- 84
2020-11-25 01:00:00 6.7 4 Sudeste 6 Sudeste 0 946 -- 84
2020-11-25 00:00:00 7.1 2 Este 5 Sur 0 946.5 -- 83
2020-11-24 23:00:00 7.8 2 Nordeste 12 Sur 0 946.5 -- 79
2020-11-24 22:00:00 8.2 6 Sur 12 Sudoeste 0 947.3 -- 78
2020-11-24 21:00:00 8.9 3 Sur 8 Oeste 0 947.4 -- 72
2020-11-24 20:00:00 10.1 3 Oeste 9 Sudoeste 0 947.4 -- 66
2020-11-24 19:00:00 11.4 4 Noroeste 14 Oeste 0 947.3 -- 59
2020-11-24 18:00:00 13 4 Oeste -- -- 0 947.2 -- 52
2020-11-24 17:00:00 14.4 -- -- -- -- 0 947.2 -- 44
2020-11-24 16:00:00 15.1 5 Sur 16 Oeste 0 947.3 -- 42
2020-11-24 15:00:00 15.4 9 Sudoeste 16 Sur 0 948 -- 40
2020-11-24 14:00:00 14.7 5 Sudoeste 11 Sur 0 948.9 -- 41
2020-11-24 13:00:00 11.1 3 Oeste 7 Oeste 0 949.8 -- 62
2020-11-24 12:00:00 7.9 3 Noroeste 5 Noroeste 0 950.9 -- 72
2020-11-24 11:00:00 5.1 2 Este 7 Este 0 951.3 -- 85
2020-11-24 10:00:00 2.6 2 Norte 6 Norte 0 951.4 -- 93
2020-11-24 09:00:00 0.6 2 Noroeste 4 Norte 0 951.1 -- 98
2020-11-24 08:00:00 -0.1 0 Calma 5 Nordeste 0 950.8 -- 97
2020-11-24 07:00:00 -0.1 0 Calma 3 Nordeste 0 950.8 -- 96
2020-11-24 06:00:00 0.1 0 Calma 3 Este 0 950.7 -- 94
2020-11-24 05:00:00 0.7 2 Este 3 Este 0 950.7 -- 94
2020-11-24 04:00:00 1.2 2 Sur 3 Sudeste 0 951.1 -- 93
2020-11-24 03:00:00 1.8 0 Calma 2 Sudeste 0 951.4 -- 92
2020-11-24 02:00:00 2.4 0 Calma 4 Sudeste 0 951.7 -- 93
2020-11-24 01:00:00 2.9 2 Norte 4 Norte 0 952.2 -- 92
2020-11-24 00:00:00 3.4 0 Calma 3 Norte 0 952.4 -- 89
2020-11-23 23:00:00 4.1 2 Sudeste 3 Noroeste 0 952.6 -- 86
2020-11-23 22:00:00 4.9 3 Norte -- -- 0 952.6 -- 84
2020-11-23 21:00:00 5.9 0 Calma 4 Sur 0 952.7 -- 80
2020-11-23 20:00:00 7 3 Sur 4 Sur 0 952.6 -- 75
2020-11-23 19:00:00 8.5 3 Este 7 Nordeste 0 952.5 -- 68
2020-11-23 18:00:00 10.7 3 Este 5 Este 0 952.2 -- 61
2020-11-23 17:00:00 12.8 3 Nordeste 6 Norte 0 952.1 -- 53
2020-11-23 16:00:00 13.5 3 Este 8 Nordeste 0 952 -- 50
2020-11-23 15:00:00 13.7 4 Este 12 Este 0 952.5 -- 52
2020-11-23 14:00:00 12.7 5 Este 10 Este 0 952.9 -- 56
2020-11-23 13:00:00 10 4 Este 13 Nordeste 0 953.7 -- 67
2020-11-23 12:00:00 7.2 5 Nordeste 13 Nordeste 0 954.4 -- 79
2020-11-23 11:00:00 3.6 5 Este 9 Nordeste 0 954.8 -- 100
2020-11-23 10:00:00 0.3 2 Este 5 Este 0 954.9 -- 100
2020-11-23 09:00:00 -0.4 2 Nordeste 5 Nordeste 0 954.3 -- 98
2020-11-23 08:00:00 -0.7 0 Calma 5 Nordeste 0 954.1 -- 97
2020-11-23 07:00:00 -0.3 0 Calma 4 Norte 0 953.7 -- 97
2020-11-23 06:00:00 0.4 0 Calma 4 Sudeste 0 953.6 -- 98
2020-11-23 05:00:00 0.8 2 Este 4 Este 0 953.5 -- 98
2020-11-23 04:00:00 1.1 -- -- 3 Noroeste 0 953.7 -- 96
2020-11-23 03:00:00 2 3 Norte 4 Noroeste 0 953.8 -- 97
2020-11-23 02:00:00 2.4 0 Calma 3 Sudeste 0 953.9 -- 96
2020-11-23 01:00:00 2.9 0 Calma 5 Noroeste 0 954.1 -- 95
2020-11-23 00:00:00 3.6 3 Nordeste 5 Este 0 954 -- 95
2020-11-22 23:00:00 4.3 3 Sudeste 5 Sudeste 0 954 -- 94
2020-11-22 22:00:00 4.9 0 Calma 5 Noroeste 0 953.9 -- 93
2020-11-22 21:00:00 5.7 4 Noroeste 5 Norte 0 953.8 -- 91
2020-11-22 20:00:00 6.8 3 Norte 5 Norte 0 953.5 -- 88
2020-11-22 19:00:00 8.2 4 Sudeste 6 Este 0 953.1 -- 85
2020-11-22 18:00:00 9.7 4 Sudeste 6 Este 0 953 -- 79
2020-11-22 17:00:00 11 2 Nordeste 7 Noroeste 0 953 -- 73
2020-11-22 16:00:00 10.6 3 Norte 6 Norte 0 953 -- 73
2020-11-22 15:00:00 9.6 3 Este 8 Este 0 953.4 -- 79
2020-11-22 14:00:00 7.5 4 Este 10 Norte 0 954.2 -- 88
2020-11-22 13:00:00 5.9 4 Este 10 Este 0 954.9 -- 95
2020-11-22 12:00:00 4.7 5 Este 9 Este 0 955.7 -- 99
2020-11-22 11:00:00 3.2 5 Este 12 Nordeste 0 955.9 -- 100
2020-11-22 10:00:00 1.3 4 Este 9 Este 0 955.7 -- 98
2020-11-22 09:00:00 1.4 2 Norte 7 Nordeste 0 955.2 -- 98
2020-11-22 08:00:00 2.3 4 Nordeste 8 Nordeste 0 954.9 -- 97
2020-11-22 07:00:00 2.4 4 Sudeste 7 Sudeste 0 954.4 -- 96
2020-11-22 06:00:00 2.6 0 Calma 5 Norte 0 954.1 -- 93
2020-11-22 05:00:00 3.3 3 Nordeste 7 Este 0 954 -- 93
2020-11-22 04:00:00 3.9 -- -- 14 Este 0 953.9 -- 93
2020-11-22 03:00:00 4.4 -- -- 12 Este 0 953.9 -- 90
2020-11-22 02:00:00 4.6 3 Nordeste 8 Nordeste 0 953.9 -- 90
2020-11-22 01:00:00 5.4 3 Nordeste 6 Nordeste 0 954.1 -- 88
2020-11-22 00:00:00 6.1 4 Este 9 Nordeste 0 953.9 -- 85
2020-11-21 23:00:00 6.8 3 Este 11 Nordeste 0 953.8 -- 83
2020-11-21 22:00:00 7.4 4 Nordeste 7 Nordeste 0 953.7 -- 81
2020-11-21 21:00:00 8.2 6 Nordeste 11 Nordeste 0 953.6 -- 77
2020-11-21 20:00:00 9 5 Norte 8 Norte 0 953.3 -- 67
2020-11-21 19:00:00 10.8 2 Este 8 Este 0 953 -- 59
2020-11-21 18:00:00 13 5 Este 11 Este 0 952.6 -- 53
2020-11-21 17:00:00 14.3 6 Este 17 Este 0 952.2 -- 49
2020-11-21 16:00:00 14.7 8 Este 16 Nordeste 0 952.2 -- 49
2020-11-21 15:00:00 15.1 5 Este 15 Nordeste 0 952.3 -- 47
2020-11-21 14:00:00 14.5 7 Este 15 Nordeste 0 952.7 -- 47
2020-11-21 13:00:00 12.6 6 Nordeste 13 Este 0 953.4 -- 53
2020-11-21 12:00:00 10.3 7 Este 20 Este 0 953.9 -- 58
2020-11-21 11:00:00 8 12 Este 22 Este 0 954.2 -- 64
2020-11-21 10:00:00 5.4 6 Este 14 Este 0 953.9 -- 72
2020-11-21 09:00:00 3 5 Este 7 Nordeste 0 953.5 -- 79
2020-11-21 08:00:00 2.5 3 Sudeste 8 Este 0 952.8 -- 80
2020-11-21 07:00:00 3.1 5 Este 7 Este 0 952.8 -- 77
2020-11-21 06:00:00 3.9 3 Este 7 Este 0 952.6 -- 72
2020-11-21 05:00:00 4.7 3 Este 9 Sudeste 0 952.6 -- 67
2020-11-21 04:00:00 5.1 4 Sur 8 Este 0 953 -- 69
2020-11-21 03:00:00 6.2 4 Este 10 Sudeste 0 952.9 -- 63
2020-11-21 02:00:00 6.8 4 Este 9 Nordeste 0 952.9 -- 58
2020-11-21 01:00:00 8.1 3 Sudeste 10 Norte 0 953.3 -- 54
2020-11-21 00:00:00 9.9 3 Nordeste 15 Norte 0 953.4 -- 48
2020-11-20 23:00:00 11.1 7 Norte 15 Norte 0 953.5 -- 44
2020-11-20 22:00:00 10.4 4 Norte 12 Noroeste 0 953.4 -- 49
2020-11-20 21:00:00 10 2 Norte 6 Nordeste 0 953.4 -- 53
2020-11-20 20:00:00 11 4 Noroeste 6 Noroeste 0 953.2 -- 48
2020-11-20 19:00:00 12.9 2 Norte 12 Norte 0 953 -- 41
2020-11-20 18:00:00 14.9 3 Nordeste 17 Nordeste 0 953.2 -- 38
2020-11-20 17:00:00 16.9 9 Nordeste 24 Nordeste 0 953 -- 30
2020-11-20 16:00:00 17.8 11 Nordeste 26 Nordeste 0 953.2 -- 25
2020-11-20 15:00:00 18 10 Nordeste 25 Nordeste 0 953.3 -- 23
2020-11-20 14:00:00 17.2 9 Nordeste 22 Este 0 954.3 -- 29
2020-11-20 13:00:00 15.9 15 Nordeste 26 Nordeste 0 955.4 -- 31
2020-11-20 12:00:00 14.8 10 Nordeste 26 Nordeste 0 956.2 -- 34
2020-11-20 11:00:00 12.8 8 Nordeste 20 Norte 0 956.2 -- 52
2020-11-20 10:00:00 9.6 6 Este 15 Nordeste 0 956 -- 69
2020-11-20 09:00:00 6.2 2 Nordeste 7 Norte 0 955.8 -- 98
2020-11-20 08:00:00 6 2 Sur 5 Sur 0 955.8 -- 95
2020-11-20 07:00:00 6.8 2 Sudeste 7 Sudeste 0 955.8 -- 95
2020-11-20 06:00:00 7.4 3 Sudeste 5 Este 0 955.8 -- 94
2020-11-20 05:00:00 8.2 -- -- 7 Este 0 955.9 -- 94
2020-11-20 04:00:00 8.6 3 Este 6 Nordeste 0 956.5 -- 93
2020-11-20 03:00:00 9.3 -- -- 6 Nordeste 0 956.3 -- 91
2020-11-20 02:00:00 9.8 3 Este 5 Norte 0 956.6 -- 90
2020-11-20 01:00:00 10.6 0 Calma 7 Nordeste 0 956.9 -- 87
2020-11-20 00:00:00 11.3 2 Sudeste 9 Nordeste 0 957.3 -- 85
2020-11-19 23:00:00 11.8 5 Nordeste 8 Este 0 957.5 -- 84
2020-11-19 22:00:00 12.6 4 Norte 9 Norte 0 957.1 -- 80
2020-11-19 21:00:00 13.7 5 Norte 10 Norte 0 957.2 -- 75
2020-11-19 20:00:00 14.5 4 Norte 12 Norte 0 957.1 -- 72
2020-11-19 19:00:00 15.5 4 Norte 9 Norte 0 956.8 -- 69
2020-11-19 18:00:00 17.4 5 Nordeste 10 Nordeste 0 956.4 -- 62
2020-11-19 17:00:00 18.9 8 Nordeste 19 Este 0 956.2 -- 55
2020-11-19 16:00:00 19.7 9 Este 21 Este 0 955.8 -- 48
2020-11-19 15:00:00 20 8 Nordeste 17 Nordeste 0 956.4 -- 52
2020-11-19 14:00:00 19.1 10 Nordeste 19 Nordeste 0 956.8 -- 56
2020-11-19 13:00:00 17.1 8 Nordeste 17 Nordeste 0 957.4 -- 64
2020-11-19 12:00:00 14.3 4 Nordeste 11 Este 0 958.1 -- 81
2020-11-19 11:00:00 11.9 4 Sudeste 7 Sur 0 957.6 -- 91
2020-11-19 10:00:00 9 3 Este 5 Este 0 957.5 -- 100
2020-11-19 09:00:00 7.3 2 Este 5 Sudeste 0 957 -- 99
2020-11-19 08:00:00 6.6 0 Calma 5 Nordeste 0 956.1 -- 97
2020-11-19 07:00:00 7.1 0 Calma 6 Noroeste 0 955.6 -- 97
2020-11-19 06:00:00 7.4 2 Nordeste 4 Nordeste 0 955.2 -- 96
2020-11-19 05:00:00 8.1 2 Norte 6 Sudeste 0 954.9 -- 96
2020-11-19 04:00:00 8.8 4 Sudeste 6 Sudeste 0 955 -- 97
2020-11-19 03:00:00 9.1 4 Sudeste 6 Sudeste 0 954.9 -- 96
2020-11-19 02:00:00 9.6 3 Norte 6 Norte 0 954.9 -- 96
2020-11-19 01:00:00 10 5 Norte 6 Norte 0 955.2 -- 95
2020-11-19 00:00:00 10.7 3 Este 6 Este 0 955.2 -- 95
2020-11-18 23:00:00 11.1 3 Este 4 Este 0 955.2 -- 92
2020-11-18 22:00:00 11.9 3 Nordeste 6 Nordeste 0 954.7 -- 90
2020-11-18 21:00:00 12.7 0 Calma 5 Nordeste 0 954.5 -- 87
2020-11-18 20:00:00 14 5 Nordeste 9 Este 0 954.1 -- 83
2020-11-18 19:00:00 15.4 5 Nordeste 9 Este 0 953.8 -- 81
2020-11-18 18:00:00 17.2 4 Nordeste 8 Sudeste 0 953.4 -- 71
2020-11-18 17:00:00 19 4 Este 8 Este 0 953.1 -- 63
2020-11-18 16:00:00 19.8 4 Sur 8 Sudeste 0 953.2 -- 58
2020-11-18 15:00:00 19.7 3 Sur -- -- 0 953.4 -- 59
2020-11-18 14:00:00 17.6 -- -- -- -- 0 953.9 -- 70
2020-11-18 13:00:00 15.7 3 Oeste 8 Este 0 954.6 -- 77
2020-11-18 12:00:00 11.5 4 Este 6 Norte 0 955.3 -- 94
2020-11-18 11:00:00 9.1 3 Norte 8 Noroeste 0 955.5 -- 100
2020-11-18 10:00:00 7.8 3 Noroeste 6 Norte 0 955.3 -- 100
2020-11-18 09:00:00 7.1 2 Este 10 Sur 0 955 -- 100
2020-11-18 08:00:00 6.7 0 Calma 5 Nordeste 0 954.7 -- 99
2020-11-18 07:00:00 7.1 0 Calma 5 Sudeste 0 954.4 -- 99
2020-11-18 06:00:00 7.7 0 Calma 5 Oeste 0 954.2 -- 100
2020-11-18 05:00:00 7.9 -- -- 4 Noroeste 0 954.1 -- 100
2020-11-18 04:00:00 7.5 2 Noroeste 3 Oeste 0 954.2 -- 99
2020-11-18 03:00:00 7.4 0 Calma 3 Nordeste 0 954.2 -- 97
2020-11-18 02:00:00 7.9 0 Calma 4 Sur 0 954.4 -- 96
2020-11-18 01:00:00 8.6 0 Calma 5 Sudeste 0 954.5 -- 96
2020-11-18 00:00:00 9.4 0 Calma -- -- 0 954.5 -- 96
2020-11-17 23:00:00 10 2 Este 2 Este 0 954.7 -- 95
2020-11-17 22:00:00 10.7 2 Este -- -- 0 954.4 -- 94
2020-11-17 21:00:00 11.5 0 Calma 3 Oeste 0 954.1 -- 93
2020-11-17 20:00:00 12.4 2 Sudoeste 4 Sudeste 0 954 -- 92
2020-11-17 19:00:00 13.4 0 Calma 3 Norte 0 953.7 -- 89
2020-11-17 18:00:00 14.8 3 Norte 5 Nordeste 0 953.4 -- 86
2020-11-17 17:00:00 15.9 0 Calma 5 Noroeste 0 953.3 -- 82
2020-11-17 16:00:00 15.8 3 Oeste 8 Noroeste 0 953.3 -- 82
2020-11-17 15:00:00 15.3 4 Noroeste 9 Noroeste 0 953.5 -- 84
2020-11-17 14:00:00 14.2 4 Nordeste 8 Norte 0 953.9 -- 88
2020-11-17 13:00:00 12.3 3 Noroeste 8 Nordeste 0 954.5 -- 97
2020-11-17 12:00:00 11 0 Calma 6 Nordeste 0 955.1 -- 100
2020-11-17 11:00:00 10.1 3 Este 9 Nordeste 0 955.1 -- 100
2020-11-17 10:00:00 9.2 4 Nordeste 7 Nordeste 0 954.9 -- 100
2020-11-17 09:00:00 8.8 2 Norte 5 Noroeste 0 954.2 -- 100
2020-11-17 08:00:00 8.3 3 Nordeste 5 Nordeste 0 953.7 -- 100
2020-11-17 07:00:00 7.9 2 Este 3 Nordeste 0 953.2 -- 99
2020-11-17 06:00:00 8.2 2 Noroeste 3 Norte 0 953 -- 99
2020-11-17 05:00:00 8.4 -- -- 3 Norte 0 952.9 -- 98
2020-11-17 04:00:00 8.7 0 Calma 4 Sudeste 0 952.9 -- 97
2020-11-17 03:00:00 9 0 Calma 4 Nordeste 0 952.9 -- 95
2020-11-17 02:00:00 9.5 0 Calma 3 Norte 0 953.1 -- 94
2020-11-17 01:00:00 10.3 0 Calma 3 Norte 0 953.2 -- 93
2020-11-17 00:00:00 11 0 Calma 6 Nordeste 0 953.1 -- 91
2020-11-16 23:00:00 12 2 Sur 4 Este 0 953.1 -- 88
2020-11-16 22:00:00 13.3 2 Sudoeste 7 Sudoeste 0 952.9 -- 86
2020-11-16 21:00:00 13.9 2 Sudoeste 7 Oeste 0 952.6 -- 84
2020-11-16 20:00:00 15.1 4 Noroeste 6 Noroeste 0 952.1 -- 79
2020-11-16 19:00:00 16.7 2 Oeste 9 Noroeste 0 951.6 -- 73
2020-11-16 18:00:00 18.1 7 Noroeste 17 Oeste 0 951 -- 67
2020-11-16 17:00:00 19.1 6 Noroeste 15 Noroeste 0 950.6 -- 61
2020-11-16 16:00:00 19.7 9 Oeste 18 Sudoeste 0 950.7 -- 60
2020-11-16 15:00:00 19.8 8 Oeste 17 Noroeste 0 950.7 -- 64
2020-11-16 14:00:00 19.3 5 Oeste 11 Oeste 0 951 -- 70
2020-11-16 13:00:00 17.8 5 Sudoeste 14 Oeste 0 951.5 -- 78
2020-11-16 12:00:00 16.9 5 Oeste 11 Oeste 0 951.9 -- 84
2020-11-16 11:00:00 15.5 6 Sudoeste 12 Sudoeste 0 952 -- 91
2020-11-16 10:00:00 14.6 4 Sudoeste 11 Sudoeste 0 951.7 -- 94
2020-11-16 09:00:00 13.5 3 Sudoeste 6 Sudoeste 0 951 -- 96
2020-11-16 08:00:00 13 4 Oeste 10 Sudoeste 0 950.3 -- 97
2020-11-16 07:00:00 12.1 4 Oeste 8 Sudoeste 0 950 -- 98
2020-11-16 06:00:00 12.3 2 Norte 9 Oeste 0 949.6 -- 94
2020-11-16 05:00:00 12.8 4 Sudoeste 10 Sudoeste 0 949.3 -- 95
2020-11-16 04:00:00 12.9 5 Sudoeste 11 Sudoeste 0 949.7 -- 94
2020-11-16 03:00:00 12.6 4 Sudoeste 9 Oeste 0 949.9 -- 94
2020-11-16 02:00:00 12.7 4 Sudoeste 9 Sudoeste 0 950.2 -- 92
2020-11-16 01:00:00 13.7 2 Norte 12 Noroeste 0 950.3 -- 87
2020-11-16 00:00:00 14.5 6 Sudoeste 15 Sudoeste 0 949.7 -- 85
2020-11-15 23:00:00 14.8 8 Sudoeste 15 Sudoeste 0 949.4 -- 85
2020-11-15 22:00:00 14.2 3 Sudoeste 12 Sur 0 949.9 -- 88
2020-11-15 21:00:00 15.5 6 Sur 12 Sudoeste 0 949.8 -- 85
2020-11-15 20:00:00 15.4 4 Sur 5 Sur 0 949.7 -- 87
2020-11-15 19:00:00 16.6 3 Oeste 6 Oeste 0 949.7 -- 82
2020-11-15 18:00:00 18.5 2 Sudoeste 14 Oeste 0 949 -- 74
2020-11-15 17:00:00 19.7 5 Oeste 19 Oeste 0 948.9 -- 67
2020-11-15 16:00:00 19.7 6 Oeste 18 Noroeste 0 948.8 -- 68
2020-11-15 15:00:00 19.9 9 Oeste 19 Oeste 0 948.8 -- 69
2020-11-15 14:00:00 19.6 5 Sur 19 Sur 0 949.2 -- 71
2020-11-15 13:00:00 18.8 7 Sudoeste 18 Sudoeste 0 949.8 -- 73
2020-11-15 12:00:00 16.8 6 Sudoeste 11 Oeste 0 950.4 -- 81
2020-11-15 11:00:00 14.7 4 Sudoeste 8 Oeste 0 950.7 -- 89
2020-11-15 10:00:00 13.1 3 Oeste 9 Sudoeste 0 950.6 -- 99
2020-11-15 09:00:00 10.8 3 Sur 6 Sur 0 950.2 -- 100
2020-11-15 08:00:00 10.3 4 Sudeste 7 Sudeste 0 949.9 -- 98
2020-11-15 07:00:00 10.9 2 Este 5 Sudoeste 0 949.5 -- 97
2020-11-15 06:00:00 12.1 0 Calma 13 Oeste 0 948.9 -- 98
2020-11-15 05:00:00 12.2 6 Oeste 12 Oeste 0 948.8 -- 99
2020-11-15 04:00:00 11.9 3 Sur 5 Sur 0 949.2 -- 97
2020-11-15 03:00:00 12.4 2 Sur 7 Sudoeste 0 949.5 -- 98
2020-11-15 02:00:00 12.6 5 Sudoeste 10 Sudoeste 0 949.6 -- 99
2020-11-15 01:00:00 12.4 5 Sudoeste 9 Sudoeste 0 949.8 -- 98
2020-11-15 00:00:00 12.4 3 Sudoeste 11 Oeste 0 949.9 -- 98
2020-11-14 23:00:00 12.7 7 Sudoeste 13 Sudoeste 0 949.8 -- 97
2020-11-14 22:00:00 13.1 7 Sudoeste 14 Sudoeste 0 949.5 -- 96
2020-11-14 21:00:00 13.7 4 Sur 15 Sur 0 949.1 -- 96
2020-11-14 20:00:00 13.9 5 Sudoeste 11 Sudoeste 0 949 -- 96
2020-11-14 19:00:00 14.1 3 Sudeste 6 Sur 0.6 948.4 -- 96
2020-11-14 18:00:00 14.4 3 Sur 6 Sur 0.4 948 -- 93
2020-11-14 17:00:00 14.7 4 Sudoeste 14 Sur 0 947.7 -- 89
2020-11-14 16:00:00 15.2 2 Sur 10 Sudoeste 0 947.6 -- 88
2020-11-14 15:00:00 15 5 Sudoeste 9 Oeste 0 947.6 -- 87
2020-11-14 14:00:00 14.3 2 Norte 6 Nordeste 0 948 -- 90
2020-11-14 13:00:00 14 2 Norte 5 Nordeste 0 948.4 -- 89
2020-11-14 12:00:00 12.7 0 Calma 7 Noroeste 0 948.9 -- 92
2020-11-14 11:00:00 11.6 3 Norte 6 Noroeste 0 948.8 -- 96
2020-11-14 10:00:00 10.6 2 Norte 4 Noroeste 0 948.6 -- 97
2020-11-14 09:00:00 10.3 0 Calma 4 Nordeste 0.2 948.2 -- 96
2020-11-14 08:00:00 10.2 0 Calma 4 Nordeste 0.2 947.9 -- 95
2020-11-14 07:00:00 10.3 2 Nordeste 4 Este 0.2 947.5 -- 94
2020-11-14 06:00:00 10.3 2 Nordeste 4 Este 0 947.5 -- 91
2020-11-14 05:00:00 10.5 3 Este 4 Este 0 947.3 -- 90
2020-11-14 04:00:00 10.6 3 Norte 8 Nordeste 0 947.5 -- 89
2020-11-14 03:00:00 10.6 2 Norte 4 Noroeste 0 947.8 -- 90
2020-11-14 02:00:00 10.6 0 Calma 5 Este 0 948.3 -- 88
2020-11-14 01:00:00 10.5 3 Nordeste 5 Nordeste 0 948.5 -- 88
2020-11-14 00:00:00 10.3 4 Noroeste 7 Norte 0 948.7 -- 88
2020-11-13 23:00:00 10.5 3 Nordeste 5 Nordeste 0 948.7 -- 88
2020-11-13 22:00:00 10.7 2 Este 5 Este 0 948.5 -- 88
2020-11-13 21:00:00 11 3 Este 5 Nordeste 0 948.1 -- 87
2020-11-13 20:00:00 11.6 3 Este 6 Norte 0 947.9 -- 83
2020-11-13 19:00:00 12.9 3 Nordeste 5 Nordeste 0 947.5 -- 78
2020-11-13 18:00:00 14.7 0 Calma 4 Nordeste 0 947.1 -- 71
2020-11-13 17:00:00 16 3 Nordeste 5 Norte 0 947 -- 62
2020-11-13 16:00:00 16.1 4 Noroeste 10 Norte 0 947 -- 59
2020-11-13 15:00:00 15.9 3 Norte 7 Este 0 947.3 -- 64
2020-11-13 14:00:00 14.9 3 Norte 8 Noroeste 0 947.7 -- 71
2020-11-13 13:00:00 13.4 4 Norte 9 Nordeste 0 948.4 -- 78
2020-11-13 12:00:00 10.6 2 Norte 5 Nordeste 0 949 -- 90
2020-11-13 11:00:00 7.7 2 Este 6 Norte 0 949.1 -- 99
2020-11-13 10:00:00 6.1 2 Noroeste 4 Noroeste 0 948.9 -- 100
2020-11-13 09:00:00 5.1 0 Calma 5 Nordeste 0 948.4 -- 100
2020-11-13 08:00:00 4.4 3 Norte 6 Nordeste 0 947.9 -- 98
2020-11-13 07:00:00 4.6 2 Noroeste 5 Norte 0 947.6 -- 97
2020-11-13 06:00:00 5.1 2 Noroeste 4 Noroeste 0 947.5 -- 98
2020-11-13 05:00:00 5.3 0 Calma 4 Este 0 947.1 -- 97
2020-11-13 04:00:00 5.6 2 Este 3 Noroeste 0 947.2 -- 97
2020-11-13 03:00:00 6 0 Calma 3 Nordeste 0 947.5 -- 96
2020-11-13 02:00:00 6.4 3 Noroeste 4 Noroeste 0 947.5 -- 96
2020-11-13 01:00:00 6.9 2 Nordeste 5 Norte 0 947.7 -- 94
2020-11-13 00:00:00 7.6 4 Noroeste 5 Noroeste 0 947.6 -- 94
2020-11-12 23:00:00 8.1 4 Este 5 Este 0 947.3 -- 93
2020-11-12 22:00:00 8.8 3 Sudeste 5 Este 0 947.4 -- 91
2020-11-12 21:00:00 9.6 2 Norte 5 Norte 0 947.4 -- 91
2020-11-12 20:00:00 10.4 2 Norte 4 Nordeste 0 947.5 -- 89
2020-11-12 19:00:00 11.7 0 Calma 4 Nordeste 0 947.3 -- 84
2020-11-12 18:00:00 13.4 3 Este 14 Nordeste 0 946.8 -- 77
2020-11-12 17:00:00 14.5 7 Este 19 Este 0 947 -- 70
2020-11-12 16:00:00 14.4 9 Este 17 Este 0 946.9 -- 74
2020-11-12 15:00:00 13.8 9 Este 18 Este 0 947.4 -- 78
2020-11-12 14:00:00 11.8 8 Este 19 Este 0 948.2 -- 85
2020-11-12 13:00:00 10.1 10 Este 19 Nordeste 0 949.3 -- 90
2020-11-12 12:00:00 10.8 8 Este 16 Este 0 950 -- 86
2020-11-12 11:00:00 9.8 10 Este 16 Nordeste 0 950.4 -- 93
2020-11-12 10:00:00 7.8 6 Nordeste 14 Nordeste 0 950.2 -- 99
2020-11-12 09:00:00 6.7 7 Nordeste 12 Nordeste 0 949.8 -- 99
2020-11-12 08:00:00 6.2 2 Este 6 Norte 0 949.6 -- 99
2020-11-12 07:00:00 6.2 3 Norte 7 Nordeste 0 949.5 -- 99
2020-11-12 06:00:00 6.2 2 Sudeste 7 Este 0 949.4 -- 98
2020-11-12 05:00:00 6.4 3 Nordeste 5 Nordeste 0 949.4 -- 97
2020-11-12 04:00:00 6.9 2 Sudeste 5 Sudeste 0 950 -- 96
2020-11-12 03:00:00 7.5 4 Sudeste 5 Sudeste 0 950.4 -- 96
2020-11-12 02:00:00 8 0 Calma 5 Norte 0 950.7 -- 96
2020-11-12 01:00:00 8.6 3 Norte 8 Nordeste 0 950.9 -- 96
2020-11-12 00:00:00 8.9 3 Nordeste 6 Nordeste 0 950.8 -- 94
2020-11-11 23:00:00 9.4 4 Nordeste 5 Nordeste 0 950.9 -- 94
2020-11-11 22:00:00 9.8 4 Este 8 Nordeste 0 950.7 -- 92
2020-11-11 21:00:00 10.4 4 Norte 6 Norte 0 950.8 -- 90
2020-11-11 20:00:00 11.3 3 Este 5 Este 0 950.2 -- 86
2020-11-11 19:00:00 12.5 2 Nordeste 7 Nordeste 0 950.2 -- 82
2020-11-11 18:00:00 14.2 5 Nordeste 8 Nordeste 0 949.9 -- 76
2020-11-11 17:00:00 15.4 5 Nordeste 11 Nordeste 0 950 -- 69
2020-11-11 16:00:00 15.7 4 Nordeste 12 Nordeste 0 949.9 -- 66
2020-11-11 15:00:00 15.4 6 Nordeste 11 Nordeste 0 949.9 -- 71
2020-11-11 14:00:00 13.8 6 Nordeste 12 Este 0 950.7 -- 77
2020-11-11 13:00:00 11.6 5 Nordeste 12 Nordeste 0 951.4 -- 85
2020-11-11 12:00:00 9 3 Nordeste 10 Nordeste 0 952.3 -- 92
2020-11-11 11:00:00 7.1 3 Nordeste 9 Este 0 952.6 -- 97
2020-11-11 10:00:00 6.1 4 Nordeste 13 Este 0 952.6 -- 99
2020-11-11 09:00:00 5.1 6 Este 10 Nordeste 0 952.5 -- 100
2020-11-11 08:00:00 4.5 4 Nordeste 6 Este 0 952.2 -- 98
2020-11-11 07:00:00 4.8 2 Nordeste 5 Este 0 952.2 -- 98
2020-11-11 06:00:00 5 5 Este 6 Este 0 952.2 -- 97
2020-11-11 05:00:00 5.6 2 Este 8 Nordeste 0 952.4 -- 98
2020-11-11 04:00:00 6.2 2 Nordeste 7 Nordeste 0 952.7 -- 98
2020-11-11 03:00:00 6.4 4 Este 6 Nordeste 0 952.9 -- 97
2020-11-11 02:00:00 6.8 4 Nordeste 6 Norte 0 953.2 -- 97
2020-11-11 01:00:00 7.3 3 Nordeste 5 Nordeste 0 953.3 -- 96
2020-11-11 00:00:00 7.8 5 Nordeste 8 Este 0 953.5 -- 95
2020-11-10 23:00:00 8.4 2 Este 4 Sudeste 0 953.6 -- 95
2020-11-10 22:00:00 9 4 Este 7 Sudeste 0 953.2 -- 94
2020-11-10 21:00:00 9.7 3 Nordeste 6 Nordeste 0 953.1 -- 92
2020-11-10 20:00:00 10.5 5 Norte 6 Norte 0 952.9 -- 90
2020-11-10 19:00:00 11.8 3 Nordeste 8 Este 0 952.9 -- 83
2020-11-10 18:00:00 13.6 5 Este 15 Este 0 952.5 -- 74
2020-11-10 17:00:00 14.5 6 Este 16 Este 0 952.7 -- 73
2020-11-10 16:00:00 14.4 6 Nordeste 14 Este 0 952.7 -- 73
2020-11-10 15:00:00 13.8 5 Nordeste 13 Este 0 952.9 -- 82
2020-11-10 14:00:00 12.3 7 Este 13 Este 0 953.3 -- 88
2020-11-10 13:00:00 10.9 3 Nordeste 8 Sudeste 0 954 -- 93
2020-11-10 12:00:00 9.5 3 Este 9 Este 0 954.5 -- 100
2020-11-10 11:00:00 8.5 5 Nordeste 9 Este 0 954.5 -- 100
2020-11-10 10:00:00 7.5 4 Sudeste 8 Sudeste 0 954.3 -- 100
2020-11-10 09:00:00 6.1 3 Este 7 Este 0 953.5 -- 100
2020-11-10 08:00:00 5.3 3 Este 5 Nordeste 0 953 -- 98
2020-11-10 07:00:00 6 2 Norte 6 Noroeste 0 952.5 -- 100
2020-11-10 06:00:00 5.9 0 Calma 3 Noroeste 0 952.3 -- 98
2020-11-10 05:00:00 6.4 0 Calma 5 Sudeste 0 951.9 -- 98
2020-11-10 04:00:00 6.8 3 Sudeste 4 Sudeste 0 951.9 -- 97
2020-11-10 03:00:00 7.2 0 Calma 3 Noroeste 0 951.9 -- 97
2020-11-10 02:00:00 7.7 2 Norte 3 Noroeste 0 952 -- 96
2020-11-10 01:00:00 8.3 0 Calma 7 Sudeste 0 952 -- 97
2020-11-10 00:00:00 8.7 0 Calma 6 Noroeste 0 952.1 -- 95
2020-11-09 23:00:00 9.6 5 Noroeste 7 Noroeste 0 952.1 -- 93
2020-11-09 22:00:00 10.7 4 Oeste 8 Oeste 0 951.8 -- 91
2020-11-09 21:00:00 11.3 5 Oeste 9 Oeste 0 951.4 -- 91
2020-11-09 20:00:00 11.7 0 Calma 3 Norte 0 951.1 -- 88
2020-11-09 19:00:00 13 0 Calma 6 Oeste 0 950.7 -- 83
2020-11-09 18:00:00 14.3 2 Noroeste 8 Noroeste 0 950.1 -- 77
2020-11-09 17:00:00 15.3 4 Noroeste 9 Noroeste 0 949.9 -- 74
2020-11-09 16:00:00 15.3 5 Noroeste 16 Noroeste 0 949.6 -- 75
2020-11-09 15:00:00 15.2 8 Noroeste 19 Noroeste 0 949.6 -- 76
2020-11-09 14:00:00 14.1 5 Noroeste 21 Oeste 0 949.9 -- 87
2020-11-09 13:00:00 14 5 Oeste 10 Noroeste 0 950.3 -- 88
2020-11-09 12:00:00 12.9 3 Nordeste 10 Este 0.4 950.7 -- 94
2020-11-09 11:00:00 11.8 9 Este 13 Este 0.2 950.7 -- 96
2020-11-09 10:00:00 10.9 3 Este 7 Nordeste 0.8 950.7 -- 98
2020-11-09 09:00:00 10.3 4 Este 11 Noroeste 1 950.2 -- 96
2020-11-09 08:00:00 10.6 7 Noroeste 11 Noroeste 0.4 949.6 -- 93
2020-11-09 07:00:00 10.8 4 Este 8 Sudeste 0 948.7 -- 91
2020-11-09 06:00:00 10.6 3 Sudeste 7 Sudeste 0 948.5 -- 90
2020-11-09 05:00:00 10.7 2 Sudeste 3 Sudeste 0 948.4 -- 89
2020-11-09 04:00:00 10.7 2 Este 11 Sur 0 948.4 -- 88
2020-11-09 03:00:00 10.3 7 Sudeste 12 Sudeste 0 948.5 -- 90
2020-11-09 02:00:00 9.9 2 Sudeste 6 Sur 0 948.6 -- 91
2020-11-09 01:00:00 10.4 4 Sudoeste 6 Sur 0 949 -- 87
2020-11-09 00:00:00 11 5 Sur 9 Sudeste 0 949 -- 85
2020-11-08 23:00:00 11.4 5 Sur 7 Sur 0 949 -- 84
2020-11-08 22:00:00 12.1 4 Sur 8 Sur 0 949 -- 81
2020-11-08 21:00:00 12.4 4 Sur 9 Sur 0 949.1 -- 80
2020-11-08 20:00:00 13.4 4 Sur 11 Sur 0 949 -- 74
2020-11-08 19:00:00 14.2 3 Sur 9 Sur 0 948.9 -- 72
2020-11-08 18:00:00 16 4 Sur 11 Sur 0 948.5 -- 60
2020-11-08 17:00:00 16.9 5 Sudoeste 14 Oeste 0 948.5 -- 57
2020-11-08 16:00:00 17.3 7 Sudoeste 14 Sudoeste 0 948.5 -- 56
2020-11-08 15:00:00 17.3 7 Oeste 13 Noroeste 0 948.7 -- 57
2020-11-08 14:00:00 17.6 6 Sudoeste 16 Sudeste 0 949.1 -- 58
2020-11-08 13:00:00 16.7 4 Sur 13 Este 0 949.9 -- 65
2020-11-08 12:00:00 13 4 Este 9 Este 0 950.6 -- 83
2020-11-08 11:00:00 10.2 3 Este 7 Este 0 951 -- 93
2020-11-08 10:00:00 7.9 2 Noroeste 6 Norte 0 951.1 -- 99
2020-11-08 09:00:00 6.2 3 Este 8 Norte 0 950.7 -- 99
2020-11-08 08:00:00 5.9 3 Norte 6 Norte 0 950.6 -- 98
2020-11-08 07:00:00 6.1 2 Norte 6 Norte 0 950.4 -- 98
2020-11-08 06:00:00 6.1 0 Calma 3 Noroeste 0 950.2 -- 97
2020-11-08 05:00:00 6.6 0 Calma 5 Nordeste 0 950.3 -- 97
2020-11-08 04:00:00 7 0 Calma 6 Norte 0 950.5 -- 96
2020-11-08 03:00:00 7.3 2 Nordeste 4 Este 0 950.8 -- 95
2020-11-08 02:00:00 7.6 3 Este 4 Sudeste 0 950.8 -- 94
2020-11-08 01:00:00 8.2 3 Este 4 Este 0 951.4 -- 93
2020-11-08 00:00:00 8.8 3 Sudoeste 5 Sudoeste 0 951 -- 92
2020-11-07 23:00:00 9.6 0 Calma 6 Sur 0 951 -- 89
2020-11-07 22:00:00 10.7 4 Sur 10 Sudoeste 0 950.8 -- 85
2020-11-07 21:00:00 11.6 3 Sur 12 Sudoeste 0 950.5 -- 81
2020-11-07 20:00:00 12.8 5 Sur 13 Sur 0 950.4 -- 74
2020-11-07 19:00:00 14 5 Sudoeste 12 Oeste 0 949.9 -- 67
2020-11-07 18:00:00 15.1 6 Sudoeste 24 Oeste 0 949.3 -- 62
2020-11-07 17:00:00 16 13 Sudoeste 27 Sudoeste 0 948.8 -- 56
2020-11-07 16:00:00 16.3 14 Sudoeste 31 Sudoeste 0 948.3 -- 58
2020-11-07 15:00:00 16.8 14 Sudoeste 34 Oeste 0 948 -- 60
2020-11-07 14:00:00 15.4 15 Oeste 32 Sudoeste 0 947.8 -- 69
2020-11-07 13:00:00 14.9 15 Oeste 33 Sudoeste 0 947.6 -- 75
2020-11-07 12:00:00 14.8 18 Sudoeste 40 Sudoeste 0.2 947.3 -- 75
2020-11-07 11:00:00 13 10 Sudoeste 27 Sudoeste 0 946.6 -- 90
2020-11-07 10:00:00 11.4 6 Sudeste 11 Sudeste 0 945.8 -- 95
2020-11-07 09:00:00 10.8 5 Sur 19 Sudoeste 0.8 944.6 -- 95
2020-11-07 08:00:00 10.5 10 Sudoeste 21 Sudoeste 0.4 943.7 -- 94
2020-11-07 07:00:00 10 2 Sur 9 Sudeste 0 942.7 -- 95
2020-11-07 06:00:00 10.5 3 Sudeste 15 Oeste 0 942.6 -- 94
2020-11-07 05:00:00 11.1 11 Sudoeste 40 Sudoeste 3.2 943.3 -- 90
2020-11-07 04:00:00 12.3 8 Sudeste 19 Sudeste 0 941.8 -- 90
2020-11-07 03:00:00 12.4 11 Sudeste 20 Sudeste 0 942 -- 91
2020-11-07 02:00:00 12.6 7 Sudeste 17 Este 0.4 942.5 -- 92
2020-11-07 01:00:00 13.2 9 Este 18 Sudeste 4 943.7 -- 92
2020-11-07 00:00:00 14.2 7 Sudoeste 19 Sudoeste 1 944.3 -- 86
2020-11-06 23:00:00 15.4 6 Sur 26 Sudoeste 0.2 943.7 -- 71
2020-11-06 22:00:00 15.6 5 Sudeste 7 Este 0 942.2 -- 74
2020-11-06 21:00:00 16.6 4 Sudeste 21 Sudoeste 0 942.2 -- 67
2020-11-06 20:00:00 16.3 4 Sudoeste 11 Sudoeste 0 942.2 -- 73
2020-11-06 19:00:00 17.1 4 Sudeste 10 Sudeste 0 941.5 -- 69
2020-11-06 18:00:00 18.4 6 Este 26 Este 0 940.6 -- 62
2020-11-06 17:00:00 18.9 14 Este 31 Este 0 939.7 -- 60
2020-11-06 16:00:00 19 20 Este 35 Este 0 939.7 -- 67
2020-11-06 15:00:00 20.2 12 Este 23 Nordeste 0 940 -- 62
2020-11-06 14:00:00 20.3 10 Este 26 Este 0 940.8 -- 59
2020-11-06 13:00:00 19.3 13 Nordeste 32 Nordeste 0 941.5 -- 68
2020-11-06 12:00:00 17.2 15 Este 30 Nordeste 0 942.4 -- 77
2020-11-06 11:00:00 15.3 15 Este 32 Este 0 942.7 -0.3 83
2020-11-06 10:00:00 14.5 20 Este 32 Nordeste 0 943.1 -- 86
2020-11-06 09:00:00 12.6 17 Este 32 Este 0 943.1 -- 92
2020-11-06 08:00:00 11.9 15 Nordeste 27 Nordeste 0 943 -- 93
2020-11-06 07:00:00 11.8 13 Nordeste 26 Este 0 943.1 -- 94
2020-11-06 06:00:00 11.7 14 Nordeste 27 Este 0 943.6 -- 95
2020-11-06 05:00:00 11.5 10 Nordeste 18 Este 0 944.2 -- 94
2020-11-06 04:00:00 11.6 9 Nordeste 16 Nordeste 0 944.2 -- 93
2020-11-06 03:00:00 11.7 10 Este 19 Nordeste 0 944.9 -- 92
2020-11-06 02:00:00 11.8 7 Nordeste 17 Nordeste 0 944.9 -- 92
2020-11-06 01:00:00 11.7 11 Este 20 Este 0 944.8 -- 92
2020-11-06 00:00:00 11.7 10 Este 18 Este 0 944.5 -- 92
2020-11-05 23:00:00 11.7 9 Nordeste 17 Este 0 944.8 -- 91
2020-11-05 22:00:00 11.8 7 Nordeste 13 Nordeste 0 944.8 -- 91
2020-11-05 21:00:00 12.1 7 Este 12 Este 0 944.4 -- 90
2020-11-05 20:00:00 12.7 8 Este 15 Este 0 944 -- 89
2020-11-05 19:00:00 13.7 9 Este 21 Este 0 943.4 -- 85
2020-11-05 18:00:00 14.4 14 Este 33 Este 0 943 -- 88
2020-11-05 17:00:00 14.5 18 Este 37 Nordeste 0 942.9 -- 88
2020-11-05 16:00:00 14 23 Este 41 Nordeste 0 943 -- 88
2020-11-05 15:00:00 14.1 18 Este 45 Este 0 943.2 -- 87
2020-11-05 14:00:00 13.9 15 Este 30 Este 0.8 943.5 -- 90
2020-11-05 13:00:00 15.1 13 Este 29 Este 0 943.9 -- 81
2020-11-05 12:00:00 14.9 14 Este 26 Nordeste 0 944.8 -- 80
2020-11-05 11:00:00 14 10 Este 27 Este 0 944.8 -- 85
2020-11-05 10:00:00 13.5 18 Este 43 Este 0 944.5 -- 85
2020-11-05 09:00:00 12.9 21 Este 38 Este 0 943.8 -- 87
2020-11-05 08:00:00 12.2 18 Este 34 Nordeste 0 943.4 -- 91
2020-11-05 07:00:00 11.5 13 Este 23 Nordeste 3.8 943.2 -- 97
2020-11-05 06:00:00 11.4 6 Oeste 17 Este 12.4 944.1 -- 97
2020-11-05 05:00:00 11.3 9 Este 35 Nordeste 2.4 943.6 -- 95
2020-11-05 04:00:00 11.2 14 Nordeste 31 Nordeste 0.6 943.3 -- 94
2020-11-05 03:00:00 11.1 15 Este 36 Este 0 943.5 -- 91
2020-11-05 02:00:00 11.4 19 Nordeste 34 Nordeste 0 942.5 -- 90
2020-11-05 01:00:00 11.4 14 Nordeste 31 Nordeste 0 943.3 -- 89
2020-11-05 00:00:00 11.1 17 Este 31 Nordeste 0 943.4 -- 91
2020-11-04 23:00:00 11 13 Nordeste 26 Nordeste 0.4 943.3 -- 93
2020-11-04 22:00:00 11.6 13 Este 26 Nordeste 0.8 943.2 -- 92
2020-11-04 21:00:00 11.7 14 Este 27 Este 0 942.9 -- 91
2020-11-04 20:00:00 11.8 14 Este 32 Este 0 942.5 -- 90
2020-11-04 19:00:00 13.1 16 Este 28 Este 0 942.5 -- 85
2020-11-04 18:00:00 15 8 Este 23 Este 0 942.2 -- 70
2020-11-04 17:00:00 15.6 12 Este 19 Este 0 941.9 -- 69
2020-11-04 16:00:00 15.8 13 Este 25 Este 0 942.2 -- 67
2020-11-04 15:00:00 15.7 9 Este 15 Este 0 942.3 -- 76
2020-11-04 14:00:00 14.8 8 Este 13 Nordeste 0 943.2 -- 81
2020-11-04 13:00:00 14.9 7 Este 15 Este 0 944 -- 83
2020-11-04 12:00:00 13.4 6 Este 18 Este 0 945.2 -- 90
2020-11-04 11:00:00 12 12 Este 21 Este 0 945.7 -0.2 93
2020-11-04 10:00:00 11.4 7 Este 15 Este 0 946.2 -- 93
2020-11-04 09:00:00 10.8 6 Este 12 Nordeste 0 946 -- 94
2020-11-04 08:00:00 10.5 6 Este 15 Este 0 945.9 -- 94
2020-11-04 07:00:00 11.1 8 Este 13 Este 0 946.2 -- 96
2020-11-04 06:00:00 11.3 8 Este 14 Sudeste 0 946.6 -- 95
2020-11-04 05:00:00 11.6 4 Este 8 Este 0 947 -- 96
2020-11-04 04:00:00 11.8 3 Nordeste 9 Nordeste 0 947.5 -- 95
2020-11-04 03:00:00 12 5 Nordeste 8 Nordeste 0 948.4 -- 94
2020-11-04 02:00:00 12.3 5 Nordeste 9 Nordeste 0 949.2 -- 93
2020-11-04 01:00:00 12.4 5 Nordeste 12 Nordeste 0 950 -- 92
2020-11-04 00:00:00 12.7 6 Nordeste 16 Este 0 950.2 -- 94
2020-11-03 23:00:00 13.1 10 Este 22 Este 0.4 951.1 -- 90
2020-11-03 22:00:00 13.4 7 Este 11 Este 0 951.4 -- 91
2020-11-03 21:00:00 13.6 5 Nordeste 12 Nordeste 0.4 951.1 -- 91
2020-11-03 20:00:00 14.2 8 Norte 15 Nordeste 0 951.2 -- 86
2020-11-03 19:00:00 14.7 7 Nordeste 21 Norte 0 950.5 -- 86
2020-11-03 18:00:00 15.3 8 Nordeste 28 Norte 6.4 950.6 -- 91
2020-11-03 17:00:00 16.7 12 Este 28 Noroeste 5 950.3 -- 82
2020-11-03 16:00:00 20.8 8 Norte 19 Norte 0 949.6 -- 58
2020-11-03 15:00:00 21.3 5 Noroeste 17 Nordeste 0 949.8 -- 51
2020-11-03 14:00:00 21.1 5 Nordeste 11 Este 0 950.2 -- 53
2020-11-03 13:00:00 20.3 3 Norte 9 Nordeste 0 950.7 -- 58
2020-11-03 12:00:00 18.8 3 Este 8 Este 0 951.2 -- 63
2020-11-03 11:00:00 16.9 3 Este 6 Sudeste 0 951.2 -- 70
2020-11-03 10:00:00 14.4 4 Sudeste 8 Este 0 951.3 -- 76
2020-11-03 09:00:00 12.6 0 Calma 9 Este 0 951.1 -- 81
2020-11-03 08:00:00 10.8 2 Sudeste 4 Este 0 950.5 -- 85
2020-11-03 07:00:00 11.4 0 Calma 5 Noroeste 0 950.4 -- 83
2020-11-03 06:00:00 11.4 3 Noroeste 4 Noroeste 0 950.5 -- 84
2020-11-03 05:00:00 11.3 2 Sur 9 Noroeste 0 950.2 -- 83
2020-11-03 04:00:00 11.1 5 Sudeste 8 Sudeste 0 950.2 -- 81
2020-11-03 03:00:00 11.8 4 Sudeste 5 Sudeste 0 950.3 -- 79
2020-11-03 02:00:00 12.7 3 Este 8 Sur 0 950.2 -- 77
2020-11-03 01:00:00 13.7 4 Sudoeste 9 Sur 0 950.2 -- 77
2020-11-03 00:00:00 14.6 3 Sur 6 Sudoeste 0 950.5 -- 66
2020-11-02 23:00:00 16.5 2 Sudeste 11 Oeste 0 950.6 -- 61
2020-11-02 22:00:00 17.2 4 Noroeste 13 Oeste 0 950.5 -- 59
2020-11-02 21:00:00 17.3 6 Noroeste 14 Noroeste 0 950.2 -- 60
2020-11-02 20:00:00 17.7 7 Oeste 12 Noroeste 0 950 -- 41
2020-11-02 19:00:00 19.6 7 Oeste 12 Oeste 0 949.4 -- 38
2020-11-02 18:00:00 21.3 4 Oeste 9 Oeste 0 949 -- 33
2020-11-02 17:00:00 22.5 4 Sudoeste 11 Sudoeste 0 948.9 -- 31
2020-11-02 16:00:00 23.1 5 Oeste 11 Oeste 0 949.1 -- 32
2020-11-02 15:00:00 23.5 4 Sudoeste 11 Norte 0 949.3 -- 34
2020-11-02 14:00:00 23 3 Sur 10 Sudeste 0 950 -- 40
2020-11-02 13:00:00 20.1 3 Noroeste -- -- 0 951 -- 48
2020-11-02 12:00:00 17.3 -- -- -- -- 0 951.5 -- 60
2020-11-02 11:00:00 14 -- -- -- -- 0 951.7 -- 71
2020-11-02 10:00:00 10.8 -- -- -- -- 0 951.8 -- 83
2020-11-02 09:00:00 8.5 -- -- -- -- 0 951.3 -- 94
2020-11-02 08:00:00 7.7 -- -- -- -- 0 950.9 -- 92
2020-11-02 07:00:00 7.5 -- -- -- -- 0 950.8 -- 94
2020-11-02 06:00:00 7.7 -- -- -- -- 0 950.7 -- 91
2020-11-02 05:00:00 8.2 -- -- -- -- 0 950.6 -- 88
2020-11-02 04:00:00 8.8 -- -- -- -- 0 950.8 -- 86
2020-11-02 03:00:00 9.5 -- -- -- -- 0 951.1 -- 84
2020-11-02 02:00:00 10 -- -- -- -- 0 951.1 -- 84
2020-11-02 01:00:00 10.7 -- -- -- -- 0 951.4 -- 80
2020-11-02 00:00:00 11.5 -- -- -- -- 0 951.4 -- 77
2020-11-01 23:00:00 12.6 -- -- -- -- 0 951.6 -- 74
2020-11-01 22:00:00 13.5 -- -- -- -- 0 951.4 -- 67
2020-11-01 21:00:00 14.6 -- -- -- -- 0 951.3 -- 64
2020-11-01 20:00:00 16.4 -- -- -- -- 0 951.1 -- 56
2020-11-01 19:00:00 18 -- -- -- -- 0 951 -- 52
2020-11-01 18:00:00 20.3 -- -- -- -- 0 950.7 -- 46
2020-11-01 17:00:00 21.9 -- -- -- -- 0 950.8 -- 41
2020-11-01 16:00:00 22.4 -- -- -- -- 0 951.1 -- 38
2020-11-01 15:00:00 22.2 -- -- -- -- 0 951.4 -- 42
2020-11-01 14:00:00 21.9 -- -- -- -- 0 952 -- 42
2020-11-01 13:00:00 20.9 -- -- -- -- 0 952.8 -- 47
2020-11-01 12:00:00 17.8 -- -- -- -- 0 953.6 -- 59
2020-11-01 11:00:00 14.5 -- -- -- -- 0 953.8 -- 70
2020-11-01 10:00:00 11.8 -- -- -- -- 0 953.6 -- 79
2020-11-01 09:00:00 8.7 -- -- -- -- 0 953.3 -- 92
2020-11-01 08:00:00 7.6 -- -- -- -- 0 952.7 -- 93
2020-11-01 07:00:00 7.7 -- -- -- -- 0 952.4 -- 89
2020-11-01 06:00:00 8 -- -- -- -- 0 952.5 -- 89
2020-11-01 05:00:00 8.5 -- -- -- -- 0 952.4 -- 87
2020-11-01 04:00:00 9.2 -- -- -- -- 0 952.9 -- 85
2020-11-01 03:00:00 9.7 -- -- -- -- 0 953.2 -- 83
2020-11-01 02:00:00 10.2 0 Calma 5 Noroeste 0 953.1 -- 81
2020-11-01 01:00:00 10.8 2 Nordeste 4 Sudoeste 0 953 -- 78
2020-11-01 00:00:00 11.8 3 Sudoeste 6 Sudoeste 0 953.2 -- 75
2020-10-31 23:00:00 12.9 4 Sudeste 6 Sudoeste 0 952.8 -- 70
2020-10-31 22:00:00 14.2 2 Norte 8 Oeste 0 953 -- 65
2020-10-31 21:00:00 15 6 Oeste 9 Oeste 0 952.4 -- 62
2020-10-31 20:00:00 16 5 Oeste 9 Noroeste 0 952.2 -- 59
2020-10-31 19:00:00 17.7 4 Oeste 5 Oeste 0 951.8 -- 53
2020-10-31 18:00:00 20.3 0 Calma 4 Sudeste 0 951.4 -- 44
2020-10-31 17:00:00 22.2 3 Este 8 Noroeste 0 951.6 -- 36
2020-10-31 16:00:00 22.7 4 Noroeste 10 Noroeste 0 951.7 -- 35
2020-10-31 15:00:00 23.1 4 Este 9 Nordeste 0 951.5 -- 35
2020-10-31 14:00:00 22 4 Oeste 7 Oeste 0 952.3 -- 37
2020-10-31 13:00:00 19.8 3 Sudeste 9 Nordeste 0 953.2 -- 44
2020-10-31 12:00:00 17 3 Este 9 Nordeste 0 953.8 -- 55
2020-10-31 11:00:00 14.1 4 Este 9 Este 0 954.2 -- 65
2020-10-31 10:00:00 10.8 3 Nordeste 6 Sudeste 0 954.1 -- 77
2020-10-31 09:00:00 8.2 0 Calma 4 Sudeste 0 953.8 -- 89
2020-10-31 08:00:00 7.7 0 Calma 5 Sudeste 0 953.2 -- 91
2020-10-31 07:00:00 7.9 0 Calma 6 Noroeste 0 952.9 -- 90
2020-10-31 06:00:00 8.2 0 Calma 4 Sudeste 0 952.5 -- 88
2020-10-31 05:00:00 8.6 3 Este 5 Sudeste 0 952.3 -- 86
2020-10-31 04:00:00 9.2 2 Sudeste 5 Sudeste 0 952.3 -- 86
2020-10-31 03:00:00 9.6 0 Calma -- -- 0 952.4 -- 84
2020-10-31 02:00:00 10.2 0 Calma 5 Norte 0 952.6 -- 80
2020-10-31 01:00:00 10.8 5 Norte 9 Nordeste 0 952.5 -- 77
2020-10-31 00:00:00 11.2 2 Nordeste 6 Nordeste 0 952.7 -- 77
2020-10-30 23:00:00 12.1 3 Nordeste 5 Este 0 952.7 -- 74
2020-10-30 22:00:00 13.1 3 Nordeste 8 Nordeste 0 952.7 -- 70
2020-10-30 21:00:00 14.3 4 Nordeste 8 Nordeste 0 952.3 -- 65
2020-10-30 20:00:00 15.5 4 Nordeste 7 Este 0 952.2 -- 62
2020-10-30 19:00:00 17.6 2 Nordeste 8 Nordeste 0 951.9 -- 56
2020-10-30 18:00:00 20.4 4 Nordeste 12 Nordeste 0 951.7 -- 46
2020-10-30 17:00:00 21.7 7 Este 13 Este 0 951.6 -- 41
2020-10-30 16:00:00 22 7 Nordeste 14 Nordeste 0 951.9 -- 40
2020-10-30 15:00:00 22 6 Este 14 Este 0 952.2 -- 45
2020-10-30 14:00:00 21.3 6 Este 15 Nordeste 0 952.7 -- 50
2020-10-30 13:00:00 19.1 10 Este 17 Este 0 953.3 -- 57
2020-10-30 12:00:00 16.2 9 Este 15 Nordeste 0 954 -- 68
2020-10-30 11:00:00 12.9 6 Nordeste 17 Nordeste 0 954.2 -- 76
2020-10-30 10:00:00 10.3 9 Este 14 Nordeste 0 954.4 -- 84
2020-10-30 09:00:00 7.5 5 Este 8 Este 0 954.2 -- 94
2020-10-30 08:00:00 6.4 3 Este 8 Nordeste 0 953.6 -- 95
2020-10-30 07:00:00 6.8 5 Nordeste 6 Nordeste 0 953.5 -- 94
2020-10-30 06:00:00 7.3 3 Sudeste 7 Este 0 953.5 -- 94
2020-10-30 05:00:00 7.6 5 Este 7 Este 0 953.2 -- 94
2020-10-30 04:00:00 8.1 3 Este 6 Este 0 953.3 -- 93
2020-10-30 03:00:00 8.6 3 Este 6 Nordeste 0 953.5 -- 92
2020-10-30 02:00:00 9.1 3 Nordeste 5 Nordeste 0 953.6 -- 90
2020-10-30 01:00:00 9.8 3 Nordeste 7 Nordeste 0 953.7 -- 88
2020-10-30 00:00:00 10.6 2 Nordeste 5 Nordeste 0 953.9 -- 83
2020-10-29 23:00:00 11.7 4 Nordeste 9 Nordeste 0 954 -- 80
2020-10-29 22:00:00 12.8 6 Nordeste 13 Nordeste 0 953.9 -- 77
2020-10-29 21:00:00 14 8 Nordeste 13 Este 0 953.6 -- 75
2020-10-29 20:00:00 14.7 4 Nordeste 7 Nordeste 0 953.3 -- 78
2020-10-29 19:00:00 16.4 5 Nordeste 9 Nordeste 0 952.9 -- 72
2020-10-29 18:00:00 18.3 5 Nordeste 9 Nordeste 0 952.6 -- 64
2020-10-29 17:00:00 19.2 5 Nordeste 10 Nordeste 0 952.5 -- 61
2020-10-29 16:00:00 19.5 3 Norte 12 Este 0 952.4 -- 59
2020-10-29 15:00:00 19.6 6 Este 15 Este 0 952.6 -- 59
2020-10-29 14:00:00 19.4 6 Sudeste 17 Este 0 953.3 -- 61
2020-10-29 13:00:00 17.3 9 Este 16 Este 0 954.2 -- 68
2020-10-29 12:00:00 15.7 8 Nordeste 17 Nordeste 0 955.1 -- 75
2020-10-29 11:00:00 14.2 8 Este 15 Este 0 955 -- 82
2020-10-29 10:00:00 12.1 3 Nordeste 10 Nordeste 0 954.8 -- 91
2020-10-29 09:00:00 10.8 4 Nordeste 10 Nordeste 0 954.4 -- 95
2020-10-29 08:00:00 10.2 3 Nordeste 5 Este 0 953.7 -- 96
2020-10-29 07:00:00 10.1 3 Nordeste 8 Nordeste 0 953.1 -- 97
2020-10-29 06:00:00 10 2 Nordeste 6 Nordeste 0 952.9 -- 97
2020-10-29 05:00:00 9.9 4 Este 13 Este 0 952.7 -- 97
2020-10-29 04:00:00 9.7 6 Este 11 Este 0 952.5 -- 98
2020-10-29 03:00:00 9.2 2 Norte 9 Nordeste 0 952.6 -- 95
2020-10-29 02:00:00 9.8 4 Norte 9 Norte 0 952.3 -- 95
2020-10-29 01:00:00 10.3 4 Nordeste 7 Sudeste 0 952.5 -- 93
2020-10-29 00:00:00 11.1 5 Sudeste 8 Sudeste 0 952.2 -- 90
2020-10-28 23:00:00 12.4 4 Nordeste 8 Norte 0 952.4 -- 87
2020-10-28 22:00:00 13.4 5 Oeste 9 Oeste 0 952 -- 85
2020-10-28 21:00:00 14.3 2 Noroeste 13 Oeste 0 951.8 -- 81
2020-10-28 20:00:00 15.8 8 Noroeste 15 Oeste 0 951.4 -- 75
2020-10-28 19:00:00 16.4 3 Oeste 8 Noroeste 0 950.6 -- 73
2020-10-28 18:00:00 17.8 5 Oeste 13 Oeste 0 949.8 -- 68
2020-10-28 17:00:00 18.3 5 Noroeste 12 Oeste 0 949.7 -- 65
2020-10-28 16:00:00 18.1 5 Noroeste 13 Noroeste 0 949.9 -- 63
2020-10-28 15:00:00 17.5 9 Noroeste 17 Oeste 0 950.3 -- 63
2020-10-28 14:00:00 16.6 7 Noroeste 15 Sudoeste 0 950.6 -- 66
2020-10-28 13:00:00 14.8 6 Sudoeste 13 Sudoeste 0 951 -- 72
2020-10-28 12:00:00 13.2 5 Sudoeste 12 Sudoeste 0 951.4 -- 77
2020-10-28 11:00:00 12.2 6 Noroeste 12 Oeste 0 951 -- 80
2020-10-28 10:00:00 11 4 Oeste 8 Sudoeste 0 950.8 -- 85
2020-10-28 09:00:00 8.4 2 Este 6 Sudoeste 0 950.2 -- 94
2020-10-28 08:00:00 6.2 3 Sudoeste 6 Sudoeste 0 949.5 -- 97
2020-10-28 07:00:00 6 0 Calma 4 Oeste 0 949.1 -- 94
2020-10-28 06:00:00 6.4 0 Calma 6 Sudoeste 0 948.8 -- 92
2020-10-28 05:00:00 7.1 0 Calma 7 Sudoeste 0 948.5 -- 89
2020-10-28 04:00:00 7.7 4 Sudoeste 9 Sudoeste 0 948.4 -- 90
2020-10-28 03:00:00 7.7 2 Sur 6 Sudoeste 0 948.5 -- 89
2020-10-28 02:00:00 8.1 3 Sudoeste 7 Oeste 0 948.5 -- 87
2020-10-28 01:00:00 9.1 4 Sudoeste 13 Sudoeste 0 948.8 -- 84
2020-10-28 00:00:00 9.5 4 Sudoeste 11 Oeste 0 948.7 -- 82
2020-10-27 23:00:00 9.8 6 Oeste 12 Oeste 0 948.9 -- 80
2020-10-27 22:00:00 10.4 6 Oeste 13 Oeste 0 948.7 -- 77
2020-10-27 21:00:00 11 7 Sudoeste 17 Sudoeste 0 948.6 -- 74
2020-10-27 20:00:00 11.6 5 Oeste 16 Sudoeste 0 948.4 -- 70
2020-10-27 19:00:00 12.7 6 Oeste 19 Noroeste 0 947.9 -- 63
2020-10-27 18:00:00 14 9 Oeste 22 Oeste 0 947.5 -- 56
2020-10-27 17:00:00 14.8 10 Oeste 21 Oeste 0 947.2 -- 48
2020-10-27 16:00:00 15.2 10 Oeste 23 Noroeste 0 947.2 -- 48
2020-10-27 15:00:00 15.6 11 Noroeste 24 Oeste 0 947.3 -- 47
2020-10-27 14:00:00 15.3 7 Oeste 20 Oeste 0 947.8 -- 49
2020-10-27 13:00:00 14.4 7 Oeste 19 Sudoeste 0 948.5 -- 53
2020-10-27 12:00:00 12.7 10 Oeste 23 Oeste 0 949 -- 60
2020-10-27 11:00:00 12.2 7 Oeste 15 Oeste 0 949 -- 66
2020-10-27 10:00:00 9.9 5 Oeste 12 Oeste 0 949.3 -- 72
2020-10-27 09:00:00 6.6 4 Oeste 12 Oeste 0 948.7 -- 85
2020-10-27 08:00:00 5 2 Noroeste 9 Sudoeste 0 948.2 -- 91
2020-10-27 07:00:00 5.2 3 Sudoeste 8 Sudoeste 0 948 -- 91
2020-10-27 06:00:00 5.2 2 Oeste 7 Oeste 0 947.9 -- 89
2020-10-27 05:00:00 5.8 3 Oeste 9 Sudoeste 0 947.8 -- 86
2020-10-27 04:00:00 6.1 2 Sudoeste 10 Oeste 0 947.9 -- 84
2020-10-27 03:00:00 6.1 4 Oeste 9 Oeste 0 948.5 -- 86
2020-10-27 02:00:00 6.4 3 Oeste 9 Sudoeste 0 948.5 -- 83
2020-10-27 01:00:00 7.5 6 Sudoeste 12 Sudoeste 0 948.9 -- 79
2020-10-27 00:00:00 7.8 5 Oeste 9 Sudoeste 0 949 -- 78